sensor_id;sensor_type;location;lat;lon;timestamp;noise_LAeq;noise_LA_min;noise_LA_max;noise_LA01;noise_LA95
45478;Laerm;31227;47.986;11.868;2023-05-20T00:00:58;38.03;34.31;40.53;;
45478;Laerm;31227;47.986;11.868;2023-05-20T00:03:23;38.04;33.90;40.33;;
45478;Laerm;31227;47.986;11.868;2023-05-20T00:05:49;38.04;34.31;40.43;;
45478;Laerm;31227;47.986;11.868;2023-05-20T00:08:14;38.03;34.31;40.53;;
45478;Laerm;31227;47.986;11.868;2023-05-20T00:10:39;38.10;34.31;40.53;;
45478;Laerm;31227;47.986;11.868;2023-05-20T00:13:05;38.20;34.69;40.71;;
45478;Laerm;31227;47.986;11.868;2023-05-20T00:15:33;38.15;33.90;40.43;;
45478;Laerm;31227;47.986;11.868;2023-05-20T00:18:00;38.08;34.69;40.53;;
45478;Laerm;31227;47.986;11.868;2023-05-20T00:20:25;38.05;34.31;40.53;;
45478;Laerm;31227;47.986;11.868;2023-05-20T00:22:50;38.07;34.31;40.33;;
45478;Laerm;31227;47.986;11.868;2023-05-20T00:25:16;38.01;34.69;40.43;;
45478;Laerm;31227;47.986;11.868;2023-05-20T00:27:41;38.11;34.69;40.53;;
45478;Laerm;31227;47.986;11.868;2023-05-20T00:30:06;38.09;35.04;40.43;;
45478;Laerm;31227;47.986;11.868;2023-05-20T00:32:32;38.20;34.31;40.71;;
45478;Laerm;31227;47.986;11.868;2023-05-20T00:34:58;38.24;34.69;40.80;;
45478;Laerm;31227;47.986;11.868;2023-05-20T00:37:23;38.13;34.31;40.53;;
45478;Laerm;31227;47.986;11.868;2023-05-20T00:39:48;38.04;33.90;40.43;;
45478;Laerm;31227;47.986;11.868;2023-05-20T00:44:45;47.82;33.44;83.04;;
45478;Laerm;31227;47.986;11.868;2023-05-20T00:47:11;38.02;34.69;40.43;;
45478;Laerm;31227;47.986;11.868;2023-05-20T00:49:36;38.06;34.31;41.38;;
45478;Laerm;31227;47.986;11.868;2023-05-20T00:52:01;38.02;34.69;40.71;;
45478;Laerm;31227;47.986;11.868;2023-05-20T00:54:26;38.02;34.69;40.62;;
45478;Laerm;31227;47.986;11.868;2023-05-20T00:56:52;38.25;34.69;41.41;;
45478;Laerm;31227;47.986;11.868;2023-05-20T00:59:17;38.06;34.69;40.53;;
45478;Laerm;31227;47.986;11.868;2023-05-20T01:01:42;38.02;34.69;40.33;;
45478;Laerm;31227;47.986;11.868;2023-05-20T01:04:07;37.99;33.90;40.53;;
45478;Laerm;31227;47.986;11.868;2023-05-20T01:06:32;37.98;33.90;40.43;;
45478;Laerm;31227;47.986;11.868;2023-05-20T01:08:58;38.11;33.90;40.43;;
45478;Laerm;31227;47.986;11.868;2023-05-20T01:11:43;38.04;33.90;40.33;;
45478;Laerm;31227;47.986;11.868;2023-05-20T01:14:12;38.10;34.31;41.96;;
45478;Laerm;31227;47.986;11.868;2023-05-20T01:16:40;38.02;34.31;40.62;;
45478;Laerm;31227;47.986;11.868;2023-05-20T01:19:10;38.00;32.35;40.43;;
45478;Laerm;31227;47.986;11.868;2023-05-20T01:21:41;38.01;34.69;40.53;;
45478;Laerm;31227;47.986;11.868;2023-05-20T01:24:07;38.01;34.31;40.62;;
45478;Laerm;31227;47.986;11.868;2023-05-20T01:26:32;38.04;34.31;40.43;;
45478;Laerm;31227;47.986;11.868;2023-05-20T01:29:02;38.01;34.31;40.33;;
45478;Laerm;31227;47.986;11.868;2023-05-20T01:31:29;38.01;33.44;40.62;;
45478;Laerm;31227;47.986;11.868;2023-05-20T01:33:56;38.03;33.90;40.62;;
45478;Laerm;31227;47.986;11.868;2023-05-20T01:36:23;37.99;34.31;40.62;;
45478;Laerm;31227;47.986;11.868;2023-05-20T01:38:50;37.99;34.69;40.23;;
45478;Laerm;31227;47.986;11.868;2023-05-20T01:41:17;38.03;34.31;40.53;;
45478;Laerm;31227;47.986;11.868;2023-05-20T01:43:42;37.98;34.31;40.33;;
45478;Laerm;31227;47.986;11.868;2023-05-20T01:46:08;37.96;33.90;40.71;;
45478;Laerm;31227;47.986;11.868;2023-05-20T01:48:33;38.02;34.31;40.89;;
45478;Laerm;31227;47.986;11.868;2023-05-20T01:50:59;38.05;34.69;40.43;;
45478;Laerm;31227;47.986;11.868;2023-05-20T01:53:24;38.04;34.31;40.43;;
45478;Laerm;31227;47.986;11.868;2023-05-20T01:55:49;38.13;35.01;40.43;;
45478;Laerm;31227;47.986;11.868;2023-05-20T01:58:15;38.29;34.69;40.89;;
45478;Laerm;31227;47.986;11.868;2023-05-20T02:00:40;38.20;34.31;40.89;;
45478;Laerm;31227;47.986;11.868;2023-05-20T02:03:05;38.16;33.90;46.43;;
45478;Laerm;31227;47.986;11.868;2023-05-20T02:05:31;38.03;34.69;40.36;;
45478;Laerm;31227;47.986;11.868;2023-05-20T02:07:56;38.03;34.31;40.43;;
45478;Laerm;31227;47.986;11.868;2023-05-20T02:10:21;38.09;34.31;40.71;;
45478;Laerm;31227;47.986;11.868;2023-05-20T02:12:46;38.10;33.44;40.79;;
45478;Laerm;31227;47.986;11.868;2023-05-20T02:15:13;38.12;34.69;40.71;;
45478;Laerm;31227;47.986;11.868;2023-05-20T02:17:38;38.05;34.31;40.62;;
45478;Laerm;31227;47.986;11.868;2023-05-20T02:20:04;38.03;33.90;41.06;;
45478;Laerm;31227;47.986;11.868;2023-05-20T02:22:30;38.05;34.69;40.43;;
45478;Laerm;31227;47.986;11.868;2023-05-20T02:24:55;38.10;32.93;40.71;;
45478;Laerm;31227;47.986;11.868;2023-05-20T02:27:21;38.09;34.69;40.89;;
45478;Laerm;31227;47.986;11.868;2023-05-20T02:29:46;38.09;33.44;40.43;;
45478;Laerm;31227;47.986;11.868;2023-05-20T02:32:11;38.08;33.90;40.53;;
45478;Laerm;31227;47.986;11.868;2023-05-20T02:34:36;38.10;33.90;40.71;;
45478;Laerm;31227;47.986;11.868;2023-05-20T02:37:02;38.09;33.44;41.14;;
45478;Laerm;31227;47.986;11.868;2023-05-20T02:39:27;38.25;34.31;40.98;;
45478;Laerm;31227;47.986;11.868;2023-05-20T02:41:52;38.05;34.31;40.53;;
45478;Laerm;31227;47.986;11.868;2023-05-20T02:44:18;38.07;34.31;40.80;;
45478;Laerm;31227;47.986;11.868;2023-05-20T02:46:43;38.12;33.90;40.71;;
45478;Laerm;31227;47.986;11.868;2023-05-20T02:49:08;38.16;35.01;40.63;;
45478;Laerm;31227;47.986;11.868;2023-05-20T02:51:33;38.03;33.44;40.43;;
45478;Laerm;31227;47.986;11.868;2023-05-20T02:54:02;38.08;34.31;40.53;;
45478;Laerm;31227;47.986;11.868;2023-05-20T02:56:27;38.13;33.90;40.71;;
45478;Laerm;31227;47.986;11.868;2023-05-20T02:58:53;38.13;34.31;41.89;;
45478;Laerm;31227;47.986;11.868;2023-05-20T03:01:18;38.02;34.34;40.53;;
45478;Laerm;31227;47.986;11.868;2023-05-20T03:03:43;38.00;34.69;40.23;;
45478;Laerm;31227;47.986;11.868;2023-05-20T03:06:08;38.03;33.90;40.53;;
45478;Laerm;31227;47.986;11.868;2023-05-20T03:08:34;38.08;34.69;41.30;;
45478;Laerm;31227;47.986;11.868;2023-05-20T03:11:00;38.00;33.90;40.43;;
45478;Laerm;31227;47.986;11.868;2023-05-20T03:13:25;37.97;34.31;40.62;;
45478;Laerm;31227;47.986;11.868;2023-05-20T03:15:51;37.97;35.01;40.71;;
45478;Laerm;31227;47.986;11.868;2023-05-20T03:18:16;37.96;34.31;40.53;;
45478;Laerm;31227;47.986;11.868;2023-05-20T03:20:41;38.06;33.90;41.06;;
45478;Laerm;31227;47.986;11.868;2023-05-20T03:23:07;38.01;34.69;40.23;;
45478;Laerm;31227;47.986;11.868;2023-05-20T03:25:32;38.03;33.44;40.43;;
45478;Laerm;31227;47.986;11.868;2023-05-20T03:27:57;38.01;33.44;44.76;;
45478;Laerm;31227;47.986;11.868;2023-05-20T03:30:23;38.01;33.90;40.23;;
45478;Laerm;31227;47.986;11.868;2023-05-20T03:32:49;38.10;34.31;40.89;;
45478;Laerm;31227;47.986;11.868;2023-05-20T03:35:15;38.09;35.04;40.43;;
45478;Laerm;31227;47.986;11.868;2023-05-20T03:37:40;38.14;34.31;40.89;;
45478;Laerm;31227;47.986;11.868;2023-05-20T03:40:06;38.12;33.90;40.80;;
45478;Laerm;31227;47.986;11.868;2023-05-20T03:42:33;38.04;34.31;40.43;;
45478;Laerm;31227;47.986;11.868;2023-05-20T03:44:58;38.13;34.69;40.33;;
45478;Laerm;31227;47.986;11.868;2023-05-20T03:47:27;38.14;34.69;40.62;;
45478;Laerm;31227;47.986;11.868;2023-05-20T03:49:52;38.10;33.90;40.43;;
45478;Laerm;31227;47.986;11.868;2023-05-20T03:52:17;38.02;34.31;40.53;;
45478;Laerm;31227;47.986;11.868;2023-05-20T03:54:43;38.03;34.69;40.53;;
45478;Laerm;31227;47.986;11.868;2023-05-20T03:57:11;38.04;34.31;40.45;;
45478;Laerm;31227;47.986;11.868;2023-05-20T03:59:36;38.04;33.44;40.43;;
45478;Laerm;31227;47.986;11.868;2023-05-20T04:02:02;38.04;34.31;40.71;;
45478;Laerm;31227;47.986;11.868;2023-05-20T04:04:27;38.10;34.31;41.06;;
45478;Laerm;31227;47.986;11.868;2023-05-20T04:06:53;38.05;33.90;40.53;;
45478;Laerm;31227;47.986;11.868;2023-05-20T04:09:18;38.17;34.31;41.53;;
45478;Laerm;31227;47.986;11.868;2023-05-20T04:11:43;38.06;33.90;42.82;;
45478;Laerm;31227;47.986;11.868;2023-05-20T04:14:09;38.46;33.90;43.86;;
45478;Laerm;31227;47.986;11.868;2023-05-20T04:16:35;39.22;34.69;43.34;;
45478;Laerm;31227;47.986;11.868;2023-05-20T04:19:01;38.79;34.31;42.93;;
45478;Laerm;31227;47.986;11.868;2023-05-20T04:21:26;38.31;35.04;42.76;;
45478;Laerm;31227;47.986;11.868;2023-05-20T04:23:51;38.34;34.31;41.61;;
45478;Laerm;31227;47.986;11.868;2023-05-20T04:26:17;38.35;35.01;43.24;;
45478;Laerm;31227;47.986;11.868;2023-05-20T04:28:42;38.19;34.31;42.29;;
45478;Laerm;31227;47.986;11.868;2023-05-20T04:31:08;38.56;34.31;43.24;;
45478;Laerm;31227;47.986;11.868;2023-05-20T04:33:34;38.63;34.31;43.29;;
45478;Laerm;31227;47.986;11.868;2023-05-20T04:36:03;38.62;34.69;43.14;;
45478;Laerm;31227;47.986;11.868;2023-05-20T04:38:29;38.92;33.90;43.04;;
45478;Laerm;31227;47.986;11.868;2023-05-20T04:40:56;39.04;32.35;43.09;;
45478;Laerm;31227;47.986;11.868;2023-05-20T04:43:25;38.89;34.69;43.34;;
45478;Laerm;31227;47.986;11.868;2023-05-20T04:45:56;38.76;33.90;42.35;;
45478;Laerm;31227;47.986;11.868;2023-05-20T04:48:22;39.11;34.31;43.24;;
45478;Laerm;31227;47.986;11.868;2023-05-20T04:50:49;39.09;34.69;43.29;;
45478;Laerm;31227;47.986;11.868;2023-05-20T04:53:16;38.80;34.31;42.47;;
45478;Laerm;31227;47.986;11.868;2023-05-20T04:55:41;38.58;33.90;42.88;;
45478;Laerm;31227;47.986;11.868;2023-05-20T04:58:07;38.24;34.69;43.14;;
45478;Laerm;31227;47.986;11.868;2023-05-20T05:00:38;38.42;34.69;42.76;;
45478;Laerm;31227;47.986;11.868;2023-05-20T05:03:04;38.58;34.69;43.72;;
45478;Laerm;31227;47.986;11.868;2023-05-20T05:05:29;38.39;34.69;43.72;;
45478;Laerm;31227;47.986;11.868;2023-05-20T05:07:54;38.67;35.04;43.72;;
45478;Laerm;31227;47.986;11.868;2023-05-20T05:10:19;39.10;34.31;43.68;;
45478;Laerm;31227;47.986;11.868;2023-05-20T05:12:45;38.11;34.31;42.03;;
45478;Laerm;31227;47.986;11.868;2023-05-20T05:15:12;38.11;34.69;40.79;;
45478;Laerm;31227;47.986;11.868;2023-05-20T05:17:37;38.16;33.90;40.89;;
45478;Laerm;31227;47.986;11.868;2023-05-20T05:20:02;38.25;34.69;40.53;;
45478;Laerm;31227;47.986;11.868;2023-05-20T05:22:28;38.38;35.04;40.80;;
45478;Laerm;31227;47.986;11.868;2023-05-20T05:24:53;38.32;35.04;40.71;;
45478;Laerm;31227;47.986;11.868;2023-05-20T05:27:19;38.29;35.04;41.14;;
45478;Laerm;31227;47.986;11.868;2023-05-20T05:29:44;38.15;35.04;40.53;;
45478;Laerm;31227;47.986;11.868;2023-05-20T05:32:10;38.15;34.31;40.43;;
45478;Laerm;31227;47.986;11.868;2023-05-20T05:34:35;38.08;33.44;40.62;;
45478;Laerm;31227;47.986;11.868;2023-05-20T05:37:00;38.15;34.69;40.80;;
45478;Laerm;31227;47.986;11.868;2023-05-20T05:39:25;38.12;34.31;41.14;;
45478;Laerm;31227;47.986;11.868;2023-05-20T05:41:51;38.18;34.69;40.53;;
45478;Laerm;31227;47.986;11.868;2023-05-20T05:44:18;38.25;34.69;46.48;;
45478;Laerm;31227;47.986;11.868;2023-05-20T05:46:43;38.13;33.90;40.62;;
45478;Laerm;31227;47.986;11.868;2023-05-20T05:49:08;38.16;34.69;40.53;;
45478;Laerm;31227;47.986;11.868;2023-05-20T05:51:33;38.12;34.31;40.53;;
45478;Laerm;31227;47.986;11.868;2023-05-20T05:53:59;38.12;34.69;40.43;;
45478;Laerm;31227;47.986;11.868;2023-05-20T05:56:24;38.25;35.04;41.94;;
45478;Laerm;31227;47.986;11.868;2023-05-20T05:58:49;38.20;33.90;41.61;;
45478;Laerm;31227;47.986;11.868;2023-05-20T06:01:15;38.15;33.90;41.14;;
45478;Laerm;31227;47.986;11.868;2023-05-20T06:03:40;38.25;34.69;42.59;;
45478;Laerm;31227;47.986;11.868;2023-05-20T06:06:05;38.23;33.90;44.12;;
45478;Laerm;31227;47.986;11.868;2023-05-20T06:08:31;38.29;35.04;44.65;;
45478;Laerm;31227;47.986;11.868;2023-05-20T06:10:56;38.28;35.04;40.71;;
45478;Laerm;31227;47.986;11.868;2023-05-20T06:13:21;38.41;35.36;42.29;;
45478;Laerm;31227;47.986;11.868;2023-05-20T06:15:48;38.43;35.04;41.14;;
45478;Laerm;31227;47.986;11.868;2023-05-20T06:18:13;38.47;34.69;40.98;;
45478;Laerm;31227;47.986;11.868;2023-05-20T06:20:38;38.53;35.04;41.75;;
45478;Laerm;31227;47.986;11.868;2023-05-20T06:23:03;38.38;34.31;41.22;;
45478;Laerm;31227;47.986;11.868;2023-05-20T06:25:28;38.51;34.69;42.53;;
45478;Laerm;31227;47.986;11.868;2023-05-20T06:27:54;38.53;35.04;44.07;;
45478;Laerm;31227;47.986;11.868;2023-05-20T06:30:19;38.87;34.69;44.80;;
45478;Laerm;31227;47.986;11.868;2023-05-20T06:32:45;38.40;35.04;41.89;;
45478;Laerm;31227;47.986;11.868;2023-05-20T06:35:10;38.56;35.04;41.89;;
45478;Laerm;31227;47.986;11.868;2023-05-20T06:37:36;38.71;35.66;45.01;;
45478;Laerm;31227;47.986;11.868;2023-05-20T06:40:01;38.56;35.04;43.19;;
45478;Laerm;31227;47.986;11.868;2023-05-20T06:42:26;38.61;35.04;42.76;;
45478;Laerm;31227;47.986;11.868;2023-05-20T06:44:51;38.47;35.04;40.80;;
45478;Laerm;31227;47.986;11.868;2023-05-20T06:47:17;38.59;35.04;40.98;;
45478;Laerm;31227;47.986;11.868;2023-05-20T06:49:42;38.63;35.04;43.68;;
45478;Laerm;31227;47.986;11.868;2023-05-20T06:52:08;38.58;35.36;41.30;;
45478;Laerm;31227;47.986;11.868;2023-05-20T06:54:33;38.58;35.04;41.06;;
45478;Laerm;31227;47.986;11.868;2023-05-20T06:57:03;39.03;34.69;56.18;;
45478;Laerm;31227;47.986;11.868;2023-05-20T06:59:29;38.38;34.69;41.06;;
45478;Laerm;31227;47.986;11.868;2023-05-20T07:01:54;38.67;34.69;44.39;;
45478;Laerm;31227;47.986;11.868;2023-05-20T07:04:19;38.43;34.69;40.80;;
45478;Laerm;31227;47.986;11.868;2023-05-20T07:06:44;38.47;35.04;41.30;;
45478;Laerm;31227;47.986;11.868;2023-05-20T07:09:10;38.57;35.04;42.85;;
45478;Laerm;31227;47.986;11.868;2023-05-20T07:11:35;38.58;35.04;44.15;;
45478;Laerm;31227;47.986;11.868;2023-05-20T07:14:00;38.43;34.69;40.89;;
45478;Laerm;31227;47.986;11.868;2023-05-20T07:16:26;38.60;34.31;41.82;;
45478;Laerm;31227;47.986;11.868;2023-05-20T07:18:51;38.66;34.69;41.46;;
45478;Laerm;31227;47.986;11.868;2023-05-20T07:21:16;38.84;35.66;43.68;;
45478;Laerm;31227;47.986;11.868;2023-05-20T07:23:41;39.07;35.66;46.15;;
45478;Laerm;31227;47.986;11.868;2023-05-20T07:26:07;38.41;35.04;41.06;;
45478;Laerm;31227;47.986;11.868;2023-05-20T07:28:32;38.47;33.90;42.82;;
45478;Laerm;31227;47.986;11.868;2023-05-20T07:31:01;38.91;34.31;44.54;;
45478;Laerm;31227;47.986;11.868;2023-05-20T07:33:27;38.57;34.69;41.82;;
45478;Laerm;31227;47.986;11.868;2023-05-20T07:35:53;38.25;34.69;40.71;;
45478;Laerm;31227;47.986;11.868;2023-05-20T07:38:19;38.34;34.69;41.75;;
45478;Laerm;31227;47.986;11.868;2023-05-20T07:40:44;38.67;34.69;42.65;;
45478;Laerm;31227;47.986;11.868;2023-05-20T07:43:09;38.62;35.04;43.90;;
45478;Laerm;31227;47.986;11.868;2023-05-20T07:45:35;38.36;34.69;41.46;;
45478;Laerm;31227;47.986;11.868;2023-05-20T07:48:03;38.89;34.69;44.51;;
45478;Laerm;31227;47.986;11.868;2023-05-20T07:50:29;38.44;35.04;43.86;;
45478;Laerm;31227;47.986;11.868;2023-05-20T07:52:55;38.70;35.59;43.49;;
45478;Laerm;31227;47.986;11.868;2023-05-20T07:55:23;38.50;35.04;42.76;;
45478;Laerm;31227;47.986;11.868;2023-05-20T07:57:48;39.10;34.69;45.63;;
45478;Laerm;31227;47.986;11.868;2023-05-20T08:00:14;38.50;34.69;43.72;;
45478;Laerm;31227;47.986;11.868;2023-05-20T08:02:39;38.43;34.69;42.35;;
45478;Laerm;31227;47.986;11.868;2023-05-20T08:05:05;38.68;34.69;44.51;;
45478;Laerm;31227;47.986;11.868;2023-05-20T08:07:30;38.47;34.69;43.68;;
45478;Laerm;31227;47.986;11.868;2023-05-20T08:09:56;38.21;33.90;40.89;;
45478;Laerm;31227;47.986;11.868;2023-05-20T08:12:21;38.28;34.69;40.62;;
45478;Laerm;31227;47.986;11.868;2023-05-20T08:14:46;38.70;33.90;43.54;;
45478;Laerm;31227;47.986;11.868;2023-05-20T08:17:11;38.61;34.69;43.24;;
45478;Laerm;31227;47.986;11.868;2023-05-20T08:19:36;38.63;33.90;43.63;;
45478;Laerm;31227;47.986;11.868;2023-05-20T08:22:02;38.50;35.04;42.41;;
45478;Laerm;31227;47.986;11.868;2023-05-20T08:24:27;38.47;35.04;44.76;;
45478;Laerm;31227;47.986;11.868;2023-05-20T08:26:52;38.75;35.04;44.07;;
45478;Laerm;31227;47.986;11.868;2023-05-20T08:29:18;38.41;34.69;42.82;;
45478;Laerm;31227;47.986;11.868;2023-05-20T08:31:43;38.53;33.90;43.63;;
45478;Laerm;31227;47.986;11.868;2023-05-20T08:34:08;38.69;34.69;43.63;;
45478;Laerm;31227;47.986;11.868;2023-05-20T08:36:33;38.69;33.90;43.34;;
45478;Laerm;31227;47.986;11.868;2023-05-20T08:38:59;38.34;34.31;43.19;;
45478;Laerm;31227;47.986;11.868;2023-05-20T08:41:24;38.48;34.69;43.72;;
45478;Laerm;31227;47.986;11.868;2023-05-20T08:43:50;38.44;34.31;41.89;;
45478;Laerm;31227;47.986;11.868;2023-05-20T08:46:17;38.42;32.93;43.34;;
45478;Laerm;31227;47.986;11.868;2023-05-20T08:48:42;38.29;34.69;42.71;;
45478;Laerm;31227;47.986;11.868;2023-05-20T08:51:08;38.24;34.31;41.82;;
45478;Laerm;31227;47.986;11.868;2023-05-20T08:53:35;38.68;34.31;53.44;;
45478;Laerm;31227;47.986;11.868;2023-05-20T08:56:00;38.36;34.31;42.41;;
45478;Laerm;31227;47.986;11.868;2023-05-20T08:58:26;38.15;34.31;41.38;;
45478;Laerm;31227;47.986;11.868;2023-05-20T09:00:52;38.31;33.44;43.04;;
45478;Laerm;31227;47.986;11.868;2023-05-20T09:03:17;38.71;34.69;43.34;;
45478;Laerm;31227;47.986;11.868;2023-05-20T09:05:44;38.31;34.69;42.22;;
45478;Laerm;31227;47.986;11.868;2023-05-20T09:08:10;38.35;35.01;41.89;;
45478;Laerm;31227;47.986;11.868;2023-05-20T09:10:36;38.71;35.04;42.22;;
45478;Laerm;31227;47.986;11.868;2023-05-20T09:13:02;39.04;35.04;44.47;;
45478;Laerm;31227;47.986;11.868;2023-05-20T09:15:28;38.63;35.66;43.90;;
45478;Laerm;31227;47.986;11.868;2023-05-20T09:17:54;38.52;35.59;41.38;;
45478;Laerm;31227;47.986;11.868;2023-05-20T09:20:20;38.78;34.69;42.82;;
45478;Laerm;31227;47.986;11.868;2023-05-20T09:22:45;38.79;35.36;42.53;;
45478;Laerm;31227;47.986;11.868;2023-05-20T09:25:11;38.91;35.36;42.85;;
45478;Laerm;31227;47.986;11.868;2023-05-20T09:27:37;38.83;35.04;43.39;;
45478;Laerm;31227;47.986;11.868;2023-05-20T09:30:07;39.14;35.36;44.23;;
45478;Laerm;31227;47.986;11.868;2023-05-20T09:32:33;38.94;35.94;44.90;;
45478;Laerm;31227;47.986;11.868;2023-05-20T09:34:58;39.01;34.69;43.49;;
45478;Laerm;31227;47.986;11.868;2023-05-20T09:37:25;38.75;35.04;43.68;;
45478;Laerm;31227;47.986;11.868;2023-05-20T09:39:54;39.30;35.04;44.16;;
45478;Laerm;31227;47.986;11.868;2023-05-20T09:42:21;38.90;35.66;44.15;;
45478;Laerm;31227;47.986;11.868;2023-05-20T09:44:48;39.09;35.36;44.31;;
45478;Laerm;31227;47.986;11.868;2023-05-20T09:47:14;39.29;35.36;45.04;;
45478;Laerm;31227;47.986;11.868;2023-05-20T09:49:41;39.46;35.04;46.45;;
45478;Laerm;31227;47.986;11.868;2023-05-20T09:52:07;38.99;35.04;42.22;;
45478;Laerm;31227;47.986;11.868;2023-05-20T09:54:32;38.92;35.94;42.88;;
45478;Laerm;31227;47.986;11.868;2023-05-20T09:56:59;39.32;35.94;45.97;;
45478;Laerm;31227;47.986;11.868;2023-05-20T09:59:25;39.04;35.66;45.20;;
45478;Laerm;31227;47.986;11.868;2023-05-20T10:01:51;38.88;35.66;41.06;;
45478;Laerm;31227;47.986;11.868;2023-05-20T10:04:16;39.54;36.45;50.05;;
45478;Laerm;31227;47.986;11.868;2023-05-20T10:12:04;39.42;36.20;44.15;;
45478;Laerm;31227;47.986;11.868;2023-05-20T10:14:54;39.92;35.66;45.66;;
45478;Laerm;31227;47.986;11.868;2023-05-20T10:17:27;39.30;36.20;47.14;;
45478;Laerm;31227;47.986;11.868;2023-05-20T10:19:59;39.17;36.45;41.46;;
45478;Laerm;31227;47.986;11.868;2023-05-20T10:22:25;39.97;36.45;44.83;;
45478;Laerm;31227;47.986;11.868;2023-05-20T10:24:57;39.53;36.45;42.93;;
45478;Laerm;31227;47.986;11.868;2023-05-20T10:27:22;40.11;36.45;46.92;;
45478;Laerm;31227;47.986;11.868;2023-05-20T10:29:54;39.49;36.45;45.17;;
45478;Laerm;31227;47.986;11.868;2023-05-20T10:32:29;39.46;36.45;47.93;;
45478;Laerm;31227;47.986;11.868;2023-05-20T10:34:59;39.69;36.45;45.72;;
45478;Laerm;31227;47.986;11.868;2023-05-20T10:37:32;39.12;35.66;41.53;;
45478;Laerm;31227;47.986;11.868;2023-05-20T10:40:04;39.51;35.94;45.14;;
45478;Laerm;31227;47.986;11.868;2023-05-20T10:42:30;39.55;36.45;44.76;;
45478;Laerm;31227;47.986;11.868;2023-05-20T10:44:56;39.33;36.45;43.44;;
45478;Laerm;31227;47.986;11.868;2023-05-20T10:47:21;39.44;36.20;44.47;;
45478;Laerm;31227;47.986;11.868;2023-05-20T10:49:46;39.36;36.34;44.27;;
45478;Laerm;31227;47.986;11.868;2023-05-20T10:52:20;39.45;35.66;44.54;;
45478;Laerm;31227;47.986;11.868;2023-05-20T10:57:17;39.41;36.45;46.02;;
45478;Laerm;31227;47.986;11.868;2023-05-20T10:59:42;39.38;36.45;44.90;;
45478;Laerm;31227;47.986;11.868;2023-05-20T11:02:08;39.74;36.45;47.39;;
45478;Laerm;31227;47.986;11.868;2023-05-20T11:04:34;39.53;36.20;44.83;;
45478;Laerm;31227;47.986;11.868;2023-05-20T11:06:59;39.71;36.20;46.57;;
45478;Laerm;31227;47.986;11.868;2023-05-20T11:09:25;39.58;36.20;45.04;;
45478;Laerm;31227;47.986;11.868;2023-05-20T11:11:50;39.76;36.45;46.62;;
45478;Laerm;31227;47.986;11.868;2023-05-20T11:14:16;39.85;35.94;44.90;;
45478;Laerm;31227;47.986;11.868;2023-05-20T11:16:44;39.85;35.66;46.59;;
45478;Laerm;31227;47.986;11.868;2023-05-20T11:19:15;39.68;36.10;44.87;;
45478;Laerm;31227;47.986;11.868;2023-05-20T11:21:44;39.64;36.10;44.43;;
45478;Laerm;31227;47.986;11.868;2023-05-20T11:24:10;39.51;35.36;46.62;;
45478;Laerm;31227;47.986;11.868;2023-05-20T11:26:35;39.35;36.69;42.41;;
45478;Laerm;31227;47.986;11.868;2023-05-20T11:29:01;39.69;36.45;44.38;;
45478;Laerm;31227;47.986;11.868;2023-05-20T11:31:26;39.54;36.69;44.94;;
45478;Laerm;31227;47.986;11.868;2023-05-20T11:33:52;39.74;36.20;44.43;;
45478;Laerm;31227;47.986;11.868;2023-05-20T11:36:17;39.44;36.69;45.14;;
45478;Laerm;31227;47.986;11.868;2023-05-20T11:38:44;39.53;35.94;43.39;;
45478;Laerm;31227;47.986;11.868;2023-05-20T11:41:09;39.89;36.20;46.57;;
45478;Laerm;31227;47.986;11.868;2023-05-20T11:43:35;39.28;35.94;42.59;;
45478;Laerm;31227;47.986;11.868;2023-05-20T11:46:00;39.97;36.20;44.47;;
45478;Laerm;31227;47.986;11.868;2023-05-20T11:48:25;39.41;35.94;43.04;;
45478;Laerm;31227;47.986;11.868;2023-05-20T11:50:51;39.42;35.66;46.25;;
45478;Laerm;31227;47.986;11.868;2023-05-20T11:53:18;39.24;36.45;43.54;;
45478;Laerm;31227;47.986;11.868;2023-05-20T11:55:47;39.83;36.20;45.63;;
45478;Laerm;31227;47.986;11.868;2023-05-20T11:58:20;39.47;35.36;44.87;;
45478;Laerm;31227;47.986;11.868;2023-05-20T12:00:45;39.80;36.45;44.11;;
45478;Laerm;31227;47.986;11.868;2023-05-20T12:03:10;39.76;36.20;44.39;;
45478;Laerm;31227;47.986;11.868;2023-05-20T12:05:36;39.48;36.69;42.88;;
45478;Laerm;31227;47.986;11.868;2023-05-20T12:08:02;39.66;36.20;47.40;;
45478;Laerm;31227;47.986;11.868;2023-05-20T12:10:28;39.31;36.20;45.04;;
45478;Laerm;31227;47.986;11.868;2023-05-20T12:12:53;39.41;36.20;44.15;;
45478;Laerm;31227;47.986;11.868;2023-05-20T12:15:18;39.09;36.20;41.75;;
45478;Laerm;31227;47.986;11.868;2023-05-20T12:17:47;39.20;35.94;43.19;;
45478;Laerm;31227;47.986;11.868;2023-05-20T12:20:16;39.75;36.20;44.23;;
45478;Laerm;31227;47.986;11.868;2023-05-20T12:22:42;39.62;36.45;44.23;;
45478;Laerm;31227;47.986;11.868;2023-05-20T12:25:09;39.68;36.20;45.91;;
45478;Laerm;31227;47.986;11.868;2023-05-20T12:27:34;39.48;35.94;44.07;;
45478;Laerm;31227;47.986;11.868;2023-05-20T12:30:00;39.42;36.20;44.42;;
45478;Laerm;31227;47.986;11.868;2023-05-20T12:32:25;39.71;35.94;45.97;;
45478;Laerm;31227;47.986;11.868;2023-05-20T12:34:50;39.57;36.45;45.01;;
45478;Laerm;31227;47.986;11.868;2023-05-20T12:37:15;39.32;36.45;42.65;;
45478;Laerm;31227;47.986;11.868;2023-05-20T12:39:41;40.27;36.69;48.99;;
45478;Laerm;31227;47.986;11.868;2023-05-20T12:42:06;39.65;36.20;46.45;;
45478;Laerm;31227;47.986;11.868;2023-05-20T12:44:32;39.23;36.69;42.53;;
45478;Laerm;31227;47.986;11.868;2023-05-20T12:46:57;39.76;36.45;44.90;;
45478;Laerm;31227;47.986;11.868;2023-05-20T12:49:23;39.19;36.69;41.61;;
45478;Laerm;31227;47.986;11.868;2023-05-20T12:51:48;39.25;35.94;43.09;;
45478;Laerm;31227;47.986;11.868;2023-05-20T12:54:13;39.59;35.66;45.89;;
45478;Laerm;31227;47.986;11.868;2023-05-20T12:56:38;39.13;36.45;42.22;;
45478;Laerm;31227;47.986;11.868;2023-05-20T12:59:04;39.27;35.94;42.03;;
45478;Laerm;31227;47.986;11.868;2023-05-20T13:01:29;39.70;36.69;44.39;;
45478;Laerm;31227;47.986;11.868;2023-05-20T13:03:54;39.23;36.45;42.13;;
45478;Laerm;31227;47.986;11.868;2023-05-20T13:06:20;39.10;36.20;41.68;;
45478;Laerm;31227;47.986;11.868;2023-05-20T13:08:45;39.61;35.66;44.11;;
45478;Laerm;31227;47.986;11.868;2023-05-20T13:11:10;39.35;36.45;42.35;;
45478;Laerm;31227;47.986;11.868;2023-05-20T13:13:35;39.51;35.94;43.77;;
45478;Laerm;31227;47.986;11.868;2023-05-20T13:16:01;39.49;36.69;43.77;;
45478;Laerm;31227;47.986;11.868;2023-05-20T13:18:26;39.40;36.20;43.86;;
45478;Laerm;31227;47.986;11.868;2023-05-20T13:20:51;40.40;35.94;47.02;;
45478;Laerm;31227;47.986;11.868;2023-05-20T13:23:17;39.62;36.20;44.97;;
45478;Laerm;31227;47.986;11.868;2023-05-20T13:25:42;39.44;35.66;44.83;;
45478;Laerm;31227;47.986;11.868;2023-05-20T13:28:08;39.30;36.20;42.47;;
45478;Laerm;31227;47.986;11.868;2023-05-20T13:30:34;39.29;36.20;43.04;;
45478;Laerm;31227;47.986;11.868;2023-05-20T13:32:59;39.07;35.86;42.29;;
45478;Laerm;31227;47.986;11.868;2023-05-20T13:35:24;39.57;36.20;44.27;;